sensor_id;sensor_type;location;lat;lon;timestamp;pressure;altitude;pressure_sealevel;temperature;humidity
19005;BME280;9635;52.078;8.648;2023-05-24T00:03:50;101094.91;;;7.45;66.54
19005;BME280;9635;52.078;8.648;2023-05-24T00:08:53;101098.97;;;7.37;66.92
19005;BME280;9635;52.078;8.648;2023-05-24T00:13:58;101102.06;;;7.45;66.96
19005;BME280;9635;52.078;8.648;2023-05-24T00:19:01;101091.03;;;7.35;67.22
19005;BME280;9635;52.078;8.648;2023-05-24T00:24:04;101091.91;;;7.36;67.33
19005;BME280;9635;52.078;8.648;2023-05-24T00:29:08;101086.56;;;7.36;67.28
19005;BME280;9635;52.078;8.648;2023-05-24T00:34:12;101084.56;;;7.39;67.48
19005;BME280;9635;52.078;8.648;2023-05-24T00:39:15;101084.81;;;7.35;67.43
19005;BME280;9635;52.078;8.648;2023-05-24T00:44:19;101073.63;;;7.28;67.76
19005;BME280;9635;52.078;8.648;2023-05-24T00:49:23;101077.25;;;7.27;68.02
19005;BME280;9635;52.078;8.648;2023-05-24T00:54:27;101068.03;;;7.17;68.30
19005;BME280;9635;52.078;8.648;2023-05-24T00:59:31;101072.41;;;7.18;68.63
19005;BME280;9635;52.078;8.648;2023-05-24T01:04:34;101062.75;;;7.15;68.59
19005;BME280;9635;52.078;8.648;2023-05-24T01:09:49;101060.25;;;7.12;68.85
19005;BME280;9635;52.078;8.648;2023-05-24T01:15:06;101055.00;;;7.11;68.86
19005;BME280;9635;52.078;8.648;2023-05-24T01:20:12;101056.13;;;7.06;69.36
19005;BME280;9635;52.078;8.648;2023-05-24T01:25:22;101051.19;;;6.99;69.61
19005;BME280;9635;52.078;8.648;2023-05-24T01:30:31;101060.16;;;6.98;69.54
19005;BME280;9635;52.078;8.648;2023-05-24T01:35:35;101057.50;;;6.98;69.72
19005;BME280;9635;52.078;8.648;2023-05-24T01:40:41;101059.63;;;7.07;69.51
19005;BME280;9635;52.078;8.648;2023-05-24T01:45:53;101046.56;;;7.02;69.75
19005;BME280;9635;52.078;8.648;2023-05-24T01:51:06;101056.91;;;7.09;69.70
19005;BME280;9635;52.078;8.648;2023-05-24T01:56:10;101050.72;;;6.75;69.96
19005;BME280;9635;52.078;8.648;2023-05-24T02:01:15;101050.69;;;6.59;71.00
19005;BME280;9635;52.078;8.648;2023-05-24T02:06:19;101049.41;;;6.15;72.43
19005;BME280;9635;52.078;8.648;2023-05-24T02:11:22;101043.19;;;6.32;72.47
19005;BME280;9635;52.078;8.648;2023-05-24T02:16:27;101039.25;;;6.39;72.37
19005;BME280;9635;52.078;8.648;2023-05-24T02:21:31;101044.84;;;6.35;72.32
19005;BME280;9635;52.078;8.648;2023-05-24T02:26:34;101048.28;;;6.20;72.90
19005;BME280;9635;52.078;8.648;2023-05-24T02:31:38;101038.41;;;6.22;73.19
19005;BME280;9635;52.078;8.648;2023-05-24T02:36:41;101037.22;;;6.27;73.15
19005;BME280;9635;52.078;8.648;2023-05-24T02:41:46;101044.06;;;6.15;73.84
19005;BME280;9635;52.078;8.648;2023-05-24T02:46:50;101041.19;;;6.20;73.42
19005;BME280;9635;52.078;8.648;2023-05-24T02:51:53;101034.88;;;6.21;73.49
19005;BME280;9635;52.078;8.648;2023-05-24T02:56:56;101035.84;;;6.20;73.50
19005;BME280;9635;52.078;8.648;2023-05-24T03:02:00;101041.19;;;6.20;73.67
19005;BME280;9635;52.078;8.648;2023-05-24T03:07:03;101048.22;;;6.21;73.80
19005;BME280;9635;52.078;8.648;2023-05-24T03:12:06;101052.53;;;6.24;73.65
19005;BME280;9635;52.078;8.648;2023-05-24T03:17:11;101047.69;;;6.14;73.87
19005;BME280;9635;52.078;8.648;2023-05-24T03:22:14;101054.75;;;6.15;74.26
19005;BME280;9635;52.078;8.648;2023-05-24T03:27:17;101052.78;;;6.19;74.13
19005;BME280;9635;52.078;8.648;2023-05-24T03:32:21;101050.00;;;6.38;74.06
19005;BME280;9635;52.078;8.648;2023-05-24T03:37:24;101046.56;;;6.36;74.13
19005;BME280;9635;52.078;8.648;2023-05-24T03:42:27;101050.06;;;6.54;73.80
19005;BME280;9635;52.078;8.648;2023-05-24T03:47:31;101059.66;;;6.40;74.21
19005;BME280;9635;52.078;8.648;2023-05-24T03:52:34;101045.28;;;6.43;74.48
19005;BME280;9635;52.078;8.648;2023-05-24T03:57:37;101050.00;;;6.71;73.89
19005;BME280;9635;52.078;8.648;2023-05-24T04:02:41;101044.94;;;6.82;73.65
19005;BME280;9635;52.078;8.648;2023-05-24T04:07:44;101047.25;;;6.73;73.82
19005;BME280;9635;52.078;8.648;2023-05-24T04:12:47;101062.47;;;6.88;73.99
19005;BME280;9635;52.078;8.648;2023-05-24T04:17:52;101050.25;;;7.16;73.31
19005;BME280;9635;52.078;8.648;2023-05-24T04:22:56;101048.72;;;7.27;72.59
19005;BME280;9635;52.078;8.648;2023-05-24T04:27:59;101044.91;;;7.32;72.60
19005;BME280;9635;52.078;8.648;2023-05-24T04:33:05;101047.41;;;6.87;73.98
19005;BME280;9635;52.078;8.648;2023-05-24T04:38:09;101037.94;;;7.13;74.07
19005;BME280;9635;52.078;8.648;2023-05-24T04:43:13;101045.94;;;7.29;74.02
19005;BME280;9635;52.078;8.648;2023-05-24T04:48:17;101039.38;;;7.50;73.73
19005;BME280;9635;52.078;8.648;2023-05-24T04:53:21;101045.06;;;7.44;74.07
19005;BME280;9635;52.078;8.648;2023-05-24T04:58:24;101041.16;;;7.66;74.19
19005;BME280;9635;52.078;8.648;2023-05-24T05:03:28;101042.50;;;7.73;74.55
19005;BME280;9635;52.078;8.648;2023-05-24T05:08:32;101044.75;;;8.25;73.00
19005;BME280;9635;52.078;8.648;2023-05-24T05:13:34;101048.69;;;8.34;72.67
19005;BME280;9635;52.078;8.648;2023-05-24T05:18:39;101050.38;;;8.21;71.73
19005;BME280;9635;52.078;8.648;2023-05-24T05:23:42;101053.41;;;8.88;71.56
19005;BME280;9635;52.078;8.648;2023-05-24T05:28:44;101060.88;;;9.38;70.21
19005;BME280;9635;52.078;8.648;2023-05-24T05:33:49;101060.84;;;9.11;70.17
19005;BME280;9635;52.078;8.648;2023-05-24T05:38:51;101062.47;;;9.55;68.61
19005;BME280;9635;52.078;8.648;2023-05-24T05:43:55;101067.56;;;9.72;69.09
19005;BME280;9635;52.078;8.648;2023-05-24T05:48:59;101070.16;;;10.01;67.83
19005;BME280;9635;52.078;8.648;2023-05-24T05:54:02;101072.56;;;10.31;66.48
19005;BME280;9635;52.078;8.648;2023-05-24T05:59:05;101066.06;;;10.08;65.61
19005;BME280;9635;52.078;8.648;2023-05-24T06:04:09;101069.00;;;10.31;67.81
19005;BME280;9635;52.078;8.648;2023-05-24T06:09:12;101070.25;;;10.00;67.29
19005;BME280;9635;52.078;8.648;2023-05-24T06:14:15;101081.47;;;9.92;67.33
19005;BME280;9635;52.078;8.648;2023-05-24T06:19:21;101077.06;;;10.69;65.65
19005;BME280;9635;52.078;8.648;2023-05-24T06:24:25;101072.84;;;11.16;62.84
19005;BME280;9635;52.078;8.648;2023-05-24T06:29:29;101074.97;;;11.11;62.66
19005;BME280;9635;52.078;8.648;2023-05-24T06:34:33;101079.53;;;10.72;63.33
19005;BME280;9635;52.078;8.648;2023-05-24T06:39:36;101072.53;;;11.93;62.23
19005;BME280;9635;52.078;8.648;2023-05-24T06:44:39;101075.81;;;11.85;61.12
19005;BME280;9635;52.078;8.648;2023-05-24T06:49:43;101078.41;;;11.98;59.93
19005;BME280;9635;52.078;8.648;2023-05-24T06:54:46;101086.50;;;11.13;62.46
19005;BME280;9635;52.078;8.648;2023-05-24T06:59:49;101084.22;;;12.16;59.49
19005;BME280;9635;52.078;8.648;2023-05-24T07:04:53;101089.03;;;12.24;60.57
19005;BME280;9635;52.078;8.648;2023-05-24T07:09:57;101086.78;;;13.54;55.52
19005;BME280;9635;52.078;8.648;2023-05-24T07:15:00;101093.66;;;13.58;54.50
19005;BME280;9635;52.078;8.648;2023-05-24T07:20:05;101100.00;;;13.57;54.77
19005;BME280;9635;52.078;8.648;2023-05-24T07:25:11;101099.94;;;12.91;53.73
19005;BME280;9635;52.078;8.648;2023-05-24T07:30:14;101106.06;;;13.16;55.46
19005;BME280;9635;52.078;8.648;2023-05-24T07:35:34;101095.63;;;12.55;56.74
19005;BME280;9635;52.078;8.648;2023-05-24T07:40:36;101082.41;;;12.86;56.54
19005;BME280;9635;52.078;8.648;2023-05-24T07:45:39;101089.47;;;12.42;56.42
19005;BME280;9635;52.078;8.648;2023-05-24T07:50:44;101097.25;;;12.91;55.92
19005;BME280;9635;52.078;8.648;2023-05-24T07:55:49;101098.44;;;14.19;53.01
19005;BME280;9635;52.078;8.648;2023-05-24T08:00:53;101097.44;;;13.99;52.40
19005;BME280;9635;52.078;8.648;2023-05-24T08:05:58;101100.41;;;13.96;53.46
19005;BME280;9635;52.078;8.648;2023-05-24T08:11:01;101089.03;;;14.34;50.76
19005;BME280;9635;52.078;8.648;2023-05-24T08:16:04;101105.44;;;14.22;51.42
19005;BME280;9635;52.078;8.648;2023-05-24T08:21:08;101111.41;;;13.72;52.17
19005;BME280;9635;52.078;8.648;2023-05-24T08:26:11;101103.72;;;13.00;54.25
19005;BME280;9635;52.078;8.648;2023-05-24T08:31:14;101101.19;;;12.98;54.64
19005;BME280;9635;52.078;8.648;2023-05-24T08:36:19;101114.63;;;11.70;58.00
19005;BME280;9635;52.078;8.648;2023-05-24T08:41:22;101119.81;;;10.72;61.71
19005;BME280;9635;52.078;8.648;2023-05-24T08:46:25;101121.41;;;11.39;60.73
19005;BME280;9635;52.078;8.648;2023-05-24T08:51:30;101118.72;;;12.35;59.11
19005;BME280;9635;52.078;8.648;2023-05-24T08:56:33;101119.91;;;12.66;57.75
19005;BME280;9635;52.078;8.648;2023-05-24T09:01:38;101115.34;;;12.67;56.61
19005;BME280;9635;52.078;8.648;2023-05-24T09:06:43;101120.84;;;11.46;66.59
19005;BME280;9635;52.078;8.648;2023-05-24T09:11:48;101129.19;;;11.31;66.15
19005;BME280;9635;52.078;8.648;2023-05-24T09:16:53;101133.59;;;11.68;63.36
19005;BME280;9635;52.078;8.648;2023-05-24T09:21:58;101134.03;;;11.86;62.50
19005;BME280;9635;52.078;8.648;2023-05-24T09:27:04;101141.25;;;11.86;60.52
19005;BME280;9635;52.078;8.648;2023-05-24T09:32:07;101141.09;;;12.00;59.99
19005;BME280;9635;52.078;8.648;2023-05-24T09:37:13;101137.19;;;12.04;59.76
19005;BME280;9635;52.078;8.648;2023-05-24T09:42:18;101150.06;;;11.64;65.75
19005;BME280;9635;52.078;8.648;2023-05-24T09:47:27;101148.00;;;11.31;67.51
19005;BME280;9635;52.078;8.648;2023-05-24T09:52:35;101156.00;;;11.56;66.64
19005;BME280;9635;52.078;8.648;2023-05-24T09:57:38;101151.44;;;11.69;66.23
19005;BME280;9635;52.078;8.648;2023-05-24T10:02:41;101140.56;;;11.95;64.44
19005;BME280;9635;52.078;8.648;2023-05-24T10:07:56;101149.28;;;11.99;64.04
19005;BME280;9635;52.078;8.648;2023-05-24T10:13:00;101141.38;;;12.08;65.90
19005;BME280;9635;52.078;8.648;2023-05-24T10:18:03;101138.91;;;12.29;65.95
19005;BME280;9635;52.078;8.648;2023-05-24T10:23:18;101140.28;;;13.26;62.34
19005;BME280;9635;52.078;8.648;2023-05-24T10:28:23;101141.63;;;13.43;59.77
19005;BME280;9635;52.078;8.648;2023-05-24T10:33:26;101149.72;;;13.32;60.76
19005;BME280;9635;52.078;8.648;2023-05-24T10:38:31;101158.53;;;12.89;61.24
19005;BME280;9635;52.078;8.648;2023-05-24T10:43:34;101155.78;;;12.67;61.80
19005;BME280;9635;52.078;8.648;2023-05-24T10:48:38;101153.91;;;11.72;70.36
19005;BME280;9635;52.078;8.648;2023-05-24T10:53:43;101154.00;;;11.71;78.67
19005;BME280;9635;52.078;8.648;2023-05-24T10:58:58;101159.41;;;11.34;79.29
19005;BME280;9635;52.078;8.648;2023-05-24T11:04:10;101163.38;;;10.77;76.59
19005;BME280;9635;52.078;8.648;2023-05-24T11:09:15;101161.13;;;10.84;77.97
19005;BME280;9635;52.078;8.648;2023-05-24T11:14:22;101162.50;;;11.02;77.07
19005;BME280;9635;52.078;8.648;2023-05-24T11:19:30;101161.56;;;11.29;79.01
19005;BME280;9635;52.078;8.648;2023-05-24T11:24:36;101158.31;;;11.37;75.80
19005;BME280;9635;52.078;8.648;2023-05-24T11:29:39;101157.28;;;12.11;76.07
19005;BME280;9635;52.078;8.648;2023-05-24T11:34:44;101144.53;;;12.62;73.21
19005;BME280;9635;52.078;8.648;2023-05-24T11:39:50;101133.75;;;12.73;69.63
19005;BME280;9635;52.078;8.648;2023-05-24T11:44:54;101134.69;;;13.84;64.79
19005;BME280;9635;52.078;8.648;2023-05-24T11:49:57;101138.53;;;13.59;63.53
19005;BME280;9635;52.078;8.648;2023-05-24T11:55:01;101139.28;;;13.61;65.31
19005;BME280;9635;52.078;8.648;2023-05-24T12:00:05;101141.28;;;13.48;65.40
19005;BME280;9635;52.078;8.648;2023-05-24T12:05:12;101148.00;;;13.54;66.42
19005;BME280;9635;52.078;8.648;2023-05-24T12:10:16;101136.44;;;13.63;65.98
19005;BME280;9635;52.078;8.648;2023-05-24T12:15:22;101138.59;;;13.91;63.93
19005;BME280;9635;52.078;8.648;2023-05-24T12:20:28;101151.53;;;14.09;58.92
19005;BME280;9635;52.078;8.648;2023-05-24T12:25:36;101151.63;;;14.19;61.13
19005;BME280;9635;52.078;8.648;2023-05-24T12:30:39;101148.72;;;13.67;61.39
19005;BME280;9635;52.078;8.648;2023-05-24T12:35:44;101148.81;;;13.77;58.77
19005;BME280;9635;52.078;8.648;2023-05-24T12:40:49;101141.72;;;14.08;59.71
19005;BME280;9635;52.078;8.648;2023-05-24T12:46:12;101145.19;;;14.94;56.92
19005;BME280;9635;52.078;8.648;2023-05-24T12:51:15;101140.94;;;15.32;56.39
19005;BME280;9635;52.078;8.648;2023-05-24T12:56:19;101144.63;;;14.69;55.60
19005;BME280;9635;52.078;8.648;2023-05-24T13:01:22;101149.22;;;13.72;57.68
19005;BME280;9635;52.078;8.648;2023-05-24T13:06:26;101151.41;;;12.99;60.37
19005;BME280;9635;52.078;8.648;2023-05-24T13:11:30;101155.13;;;12.16;62.65
19005;BME280;9635;52.078;8.648;2023-05-24T13:16:33;101152.13;;;12.68;62.99
19005;BME280;9635;52.078;8.648;2023-05-24T13:21:37;101154.53;;;12.48;61.64
19005;BME280;9635;52.078;8.648;2023-05-24T13:26:41;101152.78;;;12.47;62.02
19005;BME280;9635;52.078;8.648;2023-05-24T13:31:44;101151.38;;;12.66;62.62
19005;BME280;9635;52.078;8.648;2023-05-24T13:36:47;101155.63;;;13.03;61.78
19005;BME280;9635;52.078;8.648;2023-05-24T13:41:51;101150.31;;;13.02;61.65
19005;BME280;9635;52.078;8.648;2023-05-24T13:46:55;101155.09;;;12.87;61.34
19005;BME280;9635;52.078;8.648;2023-05-24T13:51:58;101156.47;;;12.93;61.05
19005;BME280;9635;52.078;8.648;2023-05-24T13:57:03;101155.97;;;12.88;62.04
19005;BME280;9635;52.078;8.648;2023-05-24T14:02:07;101148.72;;;12.99;62.79
19005;BME280;9635;52.078;8.648;2023-05-24T14:07:10;101149.22;;;13.27;63.25
19005;BME280;9635;52.078;8.648;2023-05-24T14:12:17;101144.22;;;13.45;64.10
19005;BME280;9635;52.078;8.648;2023-05-24T14:17:20;101153.06;;;13.47;63.31
19005;BME280;9635;52.078;8.648;2023-05-24T14:22:23;101148.59;;;13.57;60.97
19005;BME280;9635;52.078;8.648;2023-05-24T14:27:28;101152.28;;;13.67;61.05
19005;BME280;9635;52.078;8.648;2023-05-24T14:32:31;101152.28;;;14.11;59.95
19005;BME280;9635;52.078;8.648;2023-05-24T14:37:34;101156.03;;;14.52;57.13
19005;BME280;9635;52.078;8.648;2023-05-24T14:42:38;101157.28;;;14.69;56.76
19005;BME280;9635;52.078;8.648;2023-05-24T14:47:41;101148.09;;;15.02;56.27
19005;BME280;9635;52.078;8.648;2023-05-24T14:52:44;101154.22;;;15.04;54.57
19005;BME280;9635;52.078;8.648;2023-05-24T15:03:31;101153.19;;;14.95;56.50
19005;BME280;9635;52.078;8.648;2023-05-24T15:21:27;101144.25;;;15.76;55.44
19005;BME280;9635;52.078;8.648;2023-05-24T15:26:30;101151.88;;;14.69;55.79
19005;BME280;9635;52.078;8.648;2023-05-24T15:31:33;101154.25;;;15.35;54.54
19005;BME280;9635;52.078;8.648;2023-05-24T15:36:37;101152.50;;;15.74;54.58
19005;BME280;9635;52.078;8.648;2023-05-24T15:41:41;101147.06;;;15.74;53.43
19005;BME280;9635;52.078;8.648;2023-05-24T15:46:44;101154.75;;;15.29;53.96
19005;BME280;9635;52.078;8.648;2023-05-24T15:51:49;101146.66;;;15.69;52.91
19005;BME280;9635;52.078;8.648;2023-05-24T15:56:55;101137.13;;;16.04;53.26
19005;BME280;9635;52.078;8.648;2023-05-24T16:01:57;101145.81;;;16.85;52.08
19005;BME280;9635;52.078;8.648;2023-05-24T16:07:02;101143.84;;;16.09;53.15
19005;BME280;9635;52.078;8.648;2023-05-24T16:12:06;101134.56;;;15.83;52.31
19005;BME280;9635;52.078;8.648;2023-05-24T16:17:09;101138.03;;;16.24;52.63
19005;BME280;9635;52.078;8.648;2023-05-24T16:22:14;101138.88;;;16.34;52.83
19005;BME280;9635;52.078;8.648;2023-05-24T16:27:17;101142.44;;;16.25;52.34
19005;BME280;9635;52.078;8.648;2023-05-24T16:32:20;101141.16;;;16.29;52.20
19005;BME280;9635;52.078;8.648;2023-05-24T16:37:24;101135.72;;;16.00;52.48
19005;BME280;9635;52.078;8.648;2023-05-24T16:42:27;101136.75;;;16.18;53.12
19005;BME280;9635;52.078;8.648;2023-05-24T16:47:30;101126.44;;;16.12;53.34
19005;BME280;9635;52.078;8.648;2023-05-24T16:52:34;101122.59;;;16.24;52.50
19005;BME280;9635;52.078;8.648;2023-05-24T16:57:37;101118.19;;;16.13;52.53
19005;BME280;9635;52.078;8.648;2023-05-24T17:02:40;101120.75;;;16.54;52.50
19005;BME280;9635;52.078;8.648;2023-05-24T17:07:44;101112.31;;;17.04;50.52
19005;BME280;9635;52.078;8.648;2023-05-24T17:12:48;101125.59;;;16.50;51.98
19005;BME280;9635;52.078;8.648;2023-05-24T17:17:53;101120.09;;;17.27;51.94
19005;BME280;9635;52.078;8.648;2023-05-24T17:22:57;101121.53;;;17.76;48.52
19005;BME280;9635;52.078;8.648;2023-05-24T17:28:01;101120.03;;;16.42;51.25
19005;BME280;9635;52.078;8.648;2023-05-24T17:33:04;101116.56;;;15.62;53.13
19005;BME280;9635;52.078;8.648;2023-05-24T17:38:08;101127.63;;;15.09;55.30
19005;BME280;9635;52.078;8.648;2023-05-24T17:43:11;101133.03;;;14.78;56.00
19005;BME280;9635;52.078;8.648;2023-05-24T17:48:14;101138.91;;;14.63;57.55
19005;BME280;9635;52.078;8.648;2023-05-24T17:53:19;101134.81;;;14.47;56.84
19005;BME280;9635;52.078;8.648;2023-05-24T17:58:32;101144.31;;;14.42;58.15
19005;BME280;9635;52.078;8.648;2023-05-24T18:03:38;101146.50;;;14.36;58.48
19005;BME280;9635;52.078;8.648;2023-05-24T18:08:43;101146.56;;;14.25;58.58
19005;BME280;9635;52.078;8.648;2023-05-24T18:13:46;101146.09;;;14.20;58.04
19005;BME280;9635;52.078;8.648;2023-05-24T18:18:49;101142.91;;;14.15;58.70
19005;BME280;9635;52.078;8.648;2023-05-24T18:23:53;101138.44;;;14.04;59.07
19005;BME280;9635;52.078;8.648;2023-05-24T18:28:56;101144.69;;;14.05;59.95
19005;BME280;9635;52.078;8.648;2023-05-24T18:33:59;101150.22;;;14.03;59.76
19005;BME280;9635;52.078;8.648;2023-05-24T18:39:04;101150.72;;;13.97;60.53
19005;BME280;9635;52.078;8.648;2023-05-24T18:44:06;101154.06;;;13.89;60.88
19005;BME280;9635;52.078;8.648;2023-05-24T18:49:09;101161.22;;;13.68;61.27
19005;BME280;9635;52.078;8.648;2023-05-24T18:54:15;101168.88;;;13.40;62.00
19005;BME280;9635;52.078;8.648;2023-05-24T18:59:17;101172.03;;;13.12;62.55
19005;BME280;9635;52.078;8.648;2023-05-24T19:04:22;101173.00;;;12.88;63.55
19005;BME280;9635;52.078;8.648;2023-05-24T19:09:26;101178.22;;;12.67;63.90
19005;BME280;9635;52.078;8.648;2023-05-24T19:14:29;101175.72;;;12.53;64.47
19005;BME280;9635;52.078;8.648;2023-05-24T19:19:32;101186.84;;;12.37;65.16
19005;BME280;9635;52.078;8.648;2023-05-24T19:24:37;101188.69;;;12.24;65.93
19005;BME280;9635;52.078;8.648;2023-05-24T19:29:40;101189.75;;;12.10;66.41
19005;BME280;9635;52.078;8.648;2023-05-24T19:34:42;101192.72;;;11.94;66.94
19005;BME280;9635;52.078;8.648;2023-05-24T19:39:47;101211.06;;;11.76;67.70
19005;BME280;9635;52.078;8.648;2023-05-24T19:44:50;101212.41;;;11.58;68.10
19005;BME280;9635;52.078;8.648;2023-05-24T19:49:53;101209.19;;;11.53;68.21
19005;BME280;9635;52.078;8.648;2023-05-24T19:54:58;101219.59;;;11.57;68.30
19005;BME280;9635;52.078;8.648;2023-05-24T20:00:01;101231.97;;;11.72;68.14
19005;BME280;9635;52.078;8.648;2023-05-24T20:05:11;101228.16;;;11.88;67.87
19005;BME280;9635;52.078;8.648;2023-05-24T20:10:15;101234.94;;;11.93;68.02
19005;BME280;9635;52.078;8.648;2023-05-24T20:15:24;101235.03;;;11.92;68.02
19005;BME280;9635;52.078;8.648;2023-05-24T20:20:28;101238.56;;;11.92;68.29
19005;BME280;9635;52.078;8.648;2023-05-24T20:25:32;101246.00;;;12.02;68.52
19005;BME280;9635;52.078;8.648;2023-05-24T20:30:35;101247.63;;;12.04;68.65
19005;BME280;9635;52.078;8.648;2023-05-24T20:35:39;101250.06;;;12.07;68.39
19005;BME280;9635;52.078;8.648;2023-05-24T20:40:43;101257.69;;;12.13;68.23
19005;BME280;9635;52.078;8.648;2023-05-24T20:45:46;101252.06;;;12.16;68.22
19005;BME280;9635;52.078;8.648;2023-05-24T20:50:49;101247.44;;;12.19;68.75
19005;BME280;9635;52.078;8.648;2023-05-24T20:55:54;101258.84;;;12.22;69.00
19005;BME280;9635;52.078;8.648;2023-05-24T21:00:57;101265.53;;;12.16;69.18
19005;BME280;9635;52.078;8.648;2023-05-24T21:06:00;101264.41;;;12.08;69.14
19005;BME280;9635;52.078;8.648;2023-05-24T21:11:05;101269.66;;;12.09;69.13
19005;BME280;9635;52.078;8.648;2023-05-24T21:16:08;101275.50;;;12.03;68.80
19005;BME280;9635;52.078;8.648;2023-05-24T21:21:10;101284.63;;;11.77;69.06
19005;BME280;9635;52.078;8.648;2023-05-24T21:26:15;101288.19;;;11.64;69.31
19005;BME280;9635;52.078;8.648;2023-05-24T21:31:18;101288.94;;;11.54;69.81
19005;BME280;9635;52.078;8.648;2023-05-24T21:36:21;101306.69;;;11.43;70.47
19005;BME280;9635;52.078;8.648;2023-05-24T21:41:25;101303.47;;;11.25;71.74
19005;BME280;9635;52.078;8.648;2023-05-24T21:46:29;101307.75;;;11.15;71.75
19005;BME280;9635;52.078;8.648;2023-05-24T21:51:34;101308.59;;;11.16;71.97
19005;BME280;9635;52.078;8.648;2023-05-24T21:56:39;101320.53;;;11.12;72.18
19005;BME280;9635;52.078;8.648;2023-05-24T22:01:42;101316.81;;;11.14;72.22
19005;BME280;9635;52.078;8.648;2023-05-24T22:06:45;101333.34;;;11.21;72.18
19005;BME280;9635;52.078;8.648;2023-05-24T22:11:49;101321.09;;;11.17;72.05
19005;BME280;9635;52.078;8.648;2023-05-24T22:16:52;101320.06;;;11.05;72.16
19005;BME280;9635;52.078;8.648;2023-05-24T22:21:55;101319.72;;;10.97;72.20
19005;BME280;9635;52.078;8.648;2023-05-24T22:26:59;101329.28;;;10.88;72.44
19005;BME280;9635;52.078;8.648;2023-05-24T22:32:03;101329.78;;;10.80;72.52
19005;BME280;9635;52.078;8.648;2023-05-24T22:37:06;101325.81;;;10.73;72.72
19005;BME280;9635;52.078;8.648;2023-05-24T22:42:10;101331.91;;;10.63;72.85
19005;BME280;9635;52.078;8.648;2023-05-24T22:47:13;101330.78;;;10.52;73.09
19005;BME280;9635;52.078;8.648;2023-05-24T22:52:17;101332.50;;;10.53;73.37
19005;BME280;9635;52.078;8.648;2023-05-24T22:57:21;101341.72;;;10.49;73.20
19005;BME280;9635;52.078;8.648;2023-05-24T23:02:25;101340.91;;;10.34;73.33
19005;BME280;9635;52.078;8.648;2023-05-24T23:07:29;101341.69;;;10.22;73.61
19005;BME280;9635;52.078;8.648;2023-05-24T23:12:33;101344.69;;;10.17;73.97
19005;BME280;9635;52.078;8.648;2023-05-24T23:17:37;101354.16;;;10.09;74.24
19005;BME280;9635;52.078;8.648;2023-05-24T23:22:40;101358.97;;;10.04;74.38
19005;BME280;9635;52.078;8.648;2023-05-24T23:27:44;101355.75;;;9.99;74.27
19005;BME280;9635;52.078;8.648;2023-05-24T23:32:47;101351.97;;;9.87;74.49
19005;BME280;9635;52.078;8.648;2023-05-24T23:37:50;101349.38;;;9.85;74.87
19005;BME280;9635;52.078;8.648;2023-05-24T23:42:55;101350.19;;;9.87;74.84
19005;BME280;9635;52.078;8.648;2023-05-24T23:47:58;101351.88;;;9.74;74.96
19005;BME280;9635;52.078;8.648;2023-05-24T23:53:02;101361.81;;;9.72;75.26
19005;BME280;9635;52.078;8.648;2023-05-24T23:58:07;101360.28;;;9.68;75.11
